»·PEaware :: SWA102 KPHX-KLAX

SWA102 :: KPHX-KLAX

FLIGHT INFORMATION

Flight Status: Arrived
Operator:
Southwest Airlines
More flights by this operator :: More flights under this callsign
Pilot: Kolin J. (28867)
Aircraft: BOEING 737-700
(B737)
More flights by this aircraft type
Origin: KPHX Phoenix Sky Harbor Intl
United States
Destination: KLAX Los Angeles Intl
United States
More flights between these airports :: More routes between these airports
Route: KEENS2 MESSI ESTWD HLYWD1
File this flight plan on PilotEdge
Remarks:
Altitude:
(Current/Filed)
30,000ft
Speed:
(Current/Filed)
450kts
Departed: 13-May-20 10:32 PM
Arrived: 13-May-20 11:41 PM
Distance/Time
Traveled:
321nm/1:09
Distance/Time
To Go:
Arrived

Flight Plot

Page will automatically refresh every two minutes.

Flight plan parsing failed; only flown route is shown


Map Options




Map Legend


Flown Route
Filed Route
Departure Airport
Arrival Airport
Navaid (VOR, NDB)
Fix

Horizontal Profiles

Position Reports

Time Latitude Longitude Heading Altitude Ground
Speed
13-May-20 22:06 33.434044 -111.997319 77 1124ft 0kts
13-May-20 22:07 33.434044 -111.997319 77 1124ft 0kts
13-May-20 22:08 33.434044 -111.997319 77 1124ft 0kts
13-May-20 22:09 33.434044 -111.997319 77 1124ft 0kts
13-May-20 22:10 33.434044 -111.997319 77 1124ft 0kts
13-May-20 22:11 33.434044 -111.997319 77 1124ft 0kts
13-May-20 22:12 33.434044 -111.997319 77 1124ft 0kts
13-May-20 22:13 33.434044 -111.997319 77 1124ft 0kts
13-May-20 22:14 33.434044 -111.997319 77 1124ft 0kts
13-May-20 22:15 33.434044 -111.997319 77 1124ft 0kts
13-May-20 22:16 33.434044 -111.997319 77 1124ft 0kts
13-May-20 22:17 33.434044 -111.997319 77 1124ft 0kts
13-May-20 22:18 33.434044 -111.997319 77 1124ft 0kts
13-May-20 22:19 33.434044 -111.997319 77 1124ft 0kts
13-May-20 22:20 33.434044 -111.997319 77 1124ft 0kts
13-May-20 22:21 33.434044 -111.997319 77 1124ft 0kts
13-May-20 22:22 33.434044 -111.997319 77 1124ft 0kts
13-May-20 22:23 33.434044 -111.997319 77 1124ft 0kts
13-May-20 22:25 33.434039 -111.997348 78 1124ft 1kts
13-May-20 22:26 33.434099 -111.997820 171 1125ft 1kts
13-May-20 22:27 33.434192 -111.997818 181 1125ft 0kts
13-May-20 22:28 33.434192 -111.997818 181 1125ft 0kts
13-May-20 22:29 33.432937 -111.997899 197 1123ft 18kts
13-May-20 22:30 33.432133 -111.995531 102 1123ft 11kts
13-May-20 22:31 33.431569 -111.995202 193 1123ft 12kts
13-May-20 22:32 33.431016 -112.005142 269 1125ft 139kts
13-May-20 22:33 33.431136 -112.040056 268 2835ft 187kts
13-May-20 22:34 33.431570 -112.079342 269 4533ft 231kts
13-May-20 22:35 33.433247 -112.135255 270 6048ft 283kts
13-May-20 22:36 33.435572 -112.204614 270 7927ft 280kts
13-May-20 22:37 33.438308 -112.284623 270 9871ft 305kts
13-May-20 22:38 33.441520 -112.375271 270 11958ft 331kts
13-May-20 22:39 33.446000 -112.495102 270 14519ft 358kts
13-May-20 22:40 33.450924 -112.634351 268 17600ft 373kts
13-May-20 22:41 33.454036 -112.781581 275 20798ft 381kts
13-May-20 22:41 33.487051 -112.898138 289 23431ft 384kts
13-May-20 22:43 33.540872 -113.051468 289 27017ft 367kts
13-May-20 22:43 33.574134 -113.146941 288 28627ft 370kts
13-May-20 22:44 33.613747 -113.260987 288 29922ft 379kts
13-May-20 22:46 33.667881 -113.417430 289 29933ft 416kts
13-May-20 22:46 33.708861 -113.536302 289 29929ft 438kts
13-May-20 22:48 33.764428 -113.698299 288 29916ft 433kts
13-May-20 22:48 33.805889 -113.819898 288 29900ft 439kts
13-May-20 22:49 33.855966 -113.968133 288 29895ft 439kts
13-May-20 22:50 33.903034 -114.109261 284 29894ft 432kts
13-May-20 22:51 33.929202 -114.254593 279 29896ft 436kts
13-May-20 22:52 33.953403 -114.397499 279 29892ft 431kts
13-May-20 22:53 33.978466 -114.546554 279 29891ft 433kts
13-May-20 22:54 34.002652 -114.691592 279 29902ft 435kts
13-May-20 22:55 34.027363 -114.841011 279 29902ft 429kts
13-May-20 22:56 34.052641 -114.994880 279 29900ft 434kts
13-May-20 22:57 34.078075 -115.152940 279 29897ft 435kts
13-May-20 22:58 34.102994 -115.306704 279 29944ft 434kts
13-May-20 22:59 34.128243 -115.463804 279 30021ft 428kts
13-May-20 23:00 34.152267 -115.614656 279 28969ft 408kts
13-May-20 23:01 34.157503 -115.756794 264 27939ft 409kts
13-May-20 23:02 34.142741 -115.908706 264 26868ft 423kts
13-May-20 23:03 34.128336 -116.055695 264 26037ft 417kts
13-May-20 23:04 34.113525 -116.206316 264 26016ft 422kts
13-May-20 23:05 34.099098 -116.348442 263 25571ft 430kts
13-May-20 23:06 34.083382 -116.494460 264 24066ft 417kts
13-May-20 23:07 34.069572 -116.625433 265 23322ft 426kts
13-May-20 23:08 34.058579 -116.745744 265 21040ft 399kts
13-May-20 23:09 34.047482 -116.864443 265 19112ft 386kts
13-May-20 23:10 34.033691 -116.977990 262 17869ft 384kts
13-May-20 23:11 34.020853 -117.079350 263 16691ft 381kts
13-May-20 23:12 34.010335 -117.169061 263 15458ft 370kts
13-May-20 23:13 33.999900 -117.256534 263 15022ft 369kts
13-May-20 23:14 33.990742 -117.332714 264 15017ft 339kts
13-May-20 23:15 33.982236 -117.405455 264 13536ft 330kts
13-May-20 23:16 33.973741 -117.477602 265 12075ft 295kts
13-May-20 23:17 33.973118 -117.545947 273 11203ft 275kts
13-May-20 23:18 33.974285 -117.607954 273 10288ft 271kts
13-May-20 23:19 33.975194 -117.669668 272 9477ft 272kts
13-May-20 23:20 33.976131 -117.735837 273 8614ft 271kts
13-May-20 23:21 33.977012 -117.799324 273 7781ft 270kts
13-May-20 23:22 33.977841 -117.861505 272 6960ft 268kts
13-May-20 23:23 33.978499 -117.912799 272 6275ft 263kts
13-May-20 23:24 33.979157 -117.966491 272 5977ft 249kts
13-May-20 23:25 33.979737 -118.014171 272 5288ft 246kts
13-May-20 23:26 33.980182 -118.053306 272 4728ft 233kts
13-May-20 23:27 33.980579 -118.088614 272 4171ft 225kts
13-May-20 23:28 33.980772 -118.121989 269 3996ft 208kts
13-May-20 23:29 33.978056 -118.153479 264 3607ft 201kts
13-May-20 23:30 33.974610 -118.184337 264 3187ft 187kts
13-May-20 23:31 33.971489 -118.213461 265 2748ft 168kts
13-May-20 23:32 33.968870 -118.238161 265 2300ft 142kts
13-May-20 23:33 33.966590 -118.260077 265 2224ft 141kts
13-May-20 23:34 33.964314 -118.282821 263 2084ft 140kts
13-May-20 23:35 33.962170 -118.306898 263 1865ft 138kts
13-May-20 23:36 33.959619 -118.331202 262 1515ft 135kts
13-May-20 23:37 33.957023 -118.356886 261 959ft 132kts
13-May-20 23:38 33.954028 -118.383667 263 505ft 138kts
13-May-20 23:39 33.950977 -118.413031 263 122ft 97kts
13-May-20 23:40 33.949563 -118.424880 250 116ft 21kts
13-May-20 23:41 33.947312 -118.427682 192 109ft 26kts
13-May-20 23:42 33.946585 -118.424703 83 113ft 27kts
13-May-20 23:43 33.947117 -118.419550 82 119ft 32kts
13-May-20 23:44 33.947840 -118.413644 75 121ft 33kts
13-May-20 23:45 33.948073 -118.408669 152 122ft 12kts
13-May-20 23:46 33.947850 -118.405635 83 119ft 24kts
13-May-20 23:47 33.948320 -118.401895 82 116ft 22kts
13-May-20 23:48 33.947964 -118.401108 180 115ft 2kts
13-May-20 23:49 33.947887 -118.401108 180 116ft 0kts

Navigation Log

Ident Type
Flight plan parsing failed, navigation log unavailable